Time;durP1;ratioP1;P1;durP2;ratioP2;P2;SDS_P1;SDS_P2;PMS_P1;PMS_P2;Temp;Humidity;BMP_temperature;BMP_pressure;BME280_temperature;BME280_humidity;BME280_pressure;Samples;Min_cycle;Max_cycle;Signal;HPM_P1;HPM_P2
2021/10/13 00:00:05;;;;;;;2.58;1.20;;;21.50;50.40;;;;;;6318493;28;20027;-72
2021/10/13 00:03:05;;;;;;;2.60;1.23;;;21.50;50.20;;;;;;6320195;28;20233;-72
2021/10/13 00:06:06;;;;;;;2.20;1.48;;;21.50;50.20;;;;;;6319594;28;20046;-72
2021/10/13 00:09:06;;;;;;;1.25;1.10;;;21.50;50.30;;;;;;6319251;28;20032;-71
2021/10/13 00:12:07;;;;;;;2.75;1.30;;;21.50;50.30;;;;;;6318716;28;20284;-71
2021/10/13 00:15:10;;;;;;;2.10;1.05;;;21.50;50.30;;;;;;6319400;28;20032;-72
2021/10/13 00:18:11;;;;;;;1.15;1.00;;;21.50;50.30;;;;;;6318757;28;20111;-71
2021/10/13 00:21:12;;;;;;;1.45;1.00;;;21.50;50.40;;;;;;6319406;28;20515;-71
2021/10/13 00:24:12;;;;;;;2.83;1.05;;;21.50;50.30;;;;;;6318848;28;20101;-72
2021/10/13 00:27:13;;;;;;;1.88;0.95;;;21.50;50.30;;;;;;6318185;28;20032;-72
2021/10/13 00:30:13;;;;;;;2.03;1.20;;;21.50;50.40;;;;;;6318982;28;20036;-72
2021/10/13 00:33:14;;;;;;;1.38;1.02;;;21.50;50.40;;;;;;6319406;28;20479;-72
2021/10/13 00:36:14;;;;;;;1.75;0.95;;;21.50;50.30;;;;;;6318682;28;20236;-72
2021/10/13 00:39:15;;;;;;;1.13;0.93;;;21.50;50.40;;;;;;6319307;28;20048;-72
2021/10/13 00:42:15;;;;;;;2.22;1.00;;;21.50;50.40;;;;;;6318223;28;20487;-72
2021/10/13 00:45:16;;;;;;;2.45;1.25;;;21.50;50.40;;;;;;6318698;28;20035;-72
2021/10/13 00:48:16;;;;;;;1.83;0.88;;;21.50;50.40;;;;;;6318301;28;20016;-72
2021/10/13 00:51:18;;;;;;;1.20;0.73;;;21.50;50.50;;;;;;6318400;28;20024;-72
2021/10/13 00:54:19;;;;;;;1.85;1.20;;;21.50;50.40;;;;;;6318683;28;20020;-72
2021/10/13 00:57:19;;;;;;;1.23;0.88;;;21.50;50.40;;;;;;6318016;28;20029;-71
2021/10/13 01:00:22;;;;;;;2.05;0.90;;;21.50;50.40;;;;;;6318072;28;20431;-72
2021/10/13 01:03:49;;;;;;;1.77;0.90;;;21.50;50.50;;;;;;6317664;28;20387;-71
2021/10/13 01:07:15;;;;;;;1.45;0.80;;;21.50;50.50;;;;;;6318795;28;20030;-72
2021/10/13 01:10:27;;;;;;;0.88;0.70;;;21.50;50.50;;;;;;6317955;28;20044;-72
2021/10/13 01:13:45;;;;;;;1.30;0.85;;;21.50;50.50;;;;;;6317545;28;20087;-72
2021/10/13 01:17:01;;;;;;;0.90;0.70;;;21.50;50.50;;;;;;6299699;28;20043;-72
2021/10/13 01:20:38;;;;;;;1.83;1.00;;;21.50;50.60;;;;;;6318054;28;20069;-71
2021/10/13 01:23:42;;;;;;;;;;;21.50;50.60;;;;;;6314628;28;20047;-72
2021/10/13 01:26:58;;;;;;;0.93;0.80;;;21.50;50.50;;;;;;6316966;28;19956;-71
2021/10/13 01:30:01;;;;;;;1.00;0.80;;;21.50;50.50;;;;;;6317879;28;20104;-71
2021/10/13 01:33:05;;;;;;;1.27;0.80;;;21.50;50.60;;;;;;6317535;28;20024;-72
2021/10/13 01:36:08;;;;;;;1.13;0.70;;;21.50;50.60;;;;;;6317512;28;20024;-71
2021/10/13 01:39:11;;;;;;;1.77;1.08;;;21.50;50.60;;;;;;6317923;28;20391;-72
2021/10/13 01:42:14;;;;;;;1.08;0.68;;;21.50;50.60;;;;;;6317409;28;20035;-72
2021/10/13 01:45:16;;;;;;;0.70;0.60;;;21.50;50.60;;;;;;6318202;28;20028;-72
2021/10/13 01:48:18;;;;;;;1.13;0.70;;;21.50;50.60;;;;;;6316938;28;20024;-71
2021/10/13 01:51:19;;;;;;;1.10;0.70;;;21.50;50.60;;;;;;6317529;28;20489;-71
2021/10/13 01:54:21;;;;;;;2.00;1.02;;;21.50;50.60;;;;;;6317077;28;20107;-71
2021/10/13 01:57:24;;;;;;;0.80;0.60;;;21.50;50.60;;;;;;6317296;28;20107;-71
2021/10/13 02:00:26;;;;;;;0.82;0.52;;;21.50;50.60;;;;;;6317585;28;20059;-71
2021/10/13 02:03:30;;;;;;;1.73;0.70;;;21.50;50.60;;;;;;6317069;28;20036;-71
2021/10/13 02:06:32;;;;;;;0.80;0.60;;;21.50;50.70;;;;;;6317500;28;20029;-71
2021/10/13 02:09:34;;;;;;;0.80;0.50;;;21.50;50.60;;;;;;6317114;28;20028;-71
2021/10/13 02:12:39;;;;;;;0.82;0.60;;;21.50;50.70;;;;;;6317714;28;20093;-72
2021/10/13 02:15:43;;;;;;;1.27;0.80;;;21.50;50.70;;;;;;6316773;28;20020;-71
2021/10/13 02:18:45;;;;;;;0.80;0.60;;;21.50;50.70;;;;;;6317192;28;20050;-71
2021/10/13 02:21:49;;;;;;;1.00;0.60;;;21.50;50.70;;;;;;6317234;28;20024;-71
2021/10/13 02:24:51;;;;;;;1.42;0.75;;;21.50;50.70;;;;;;6319723;28;20429;-72
2021/10/13 02:28:03;;;;;;;0.85;0.50;;;21.50;50.70;;;;;;6321174;28;20042;-71
2021/10/13 02:31:04;;;;;;;1.42;0.75;;;21.50;50.70;;;;;;6321699;28;20127;-71
2021/10/13 02:34:04;;;;;;;1.15;0.68;;;21.50;50.70;;;;;;6322092;28;20425;-71
2021/10/13 02:37:05;;;;;;;0.80;0.60;;;21.50;50.70;;;;;;6320997;28;20047;-71
2021/10/13 02:40:07;;;;;;;1.17;0.68;;;21.50;50.70;;;;;;6321786;28;20528;-71
2021/10/13 02:43:09;;;;;;;0.70;0.60;;;21.50;50.70;;;;;;6321944;28;20032;-71
2021/10/13 02:46:22;;;;;;;1.10;0.70;;;21.50;50.70;;;;;;6321694;28;20492;-71
2021/10/13 02:49:44;;;;;;;1.27;0.70;;;21.50;50.70;;;;;;6320320;28;20074;-71
2021/10/13 02:52:50;;;;;;;0.77;0.70;;;21.50;50.70;;;;;;6321057;28;20036;-71
2021/10/13 02:56:02;;;;;;;0.80;0.60;;;21.50;50.80;;;;;;6321053;28;20036;-71
2021/10/13 02:59:06;;;;;;;0.63;0.40;;;21.50;50.70;;;;;;6321057;28;20024;-71
2021/10/13 03:02:12;;;;;;;0.67;0.53;;;21.50;50.70;;;;;;6321201;28;20027;-71
2021/10/13 03:05:16;;;;;;;0.88;0.70;;;21.50;50.80;;;;;;6321365;28;20024;-71
2021/10/13 03:08:21;;;;;;;0.60;0.47;;;21.50;50.80;;;;;;6318637;28;20483;-71
2021/10/13 03:11:22;;;;;;;;;;;21.50;50.80;;;;;;6321476;28;20044;-71
2021/10/13 03:14:25;;;;;;;0.63;0.50;;;21.50;50.70;;;;;;6314423;28;20375;-71
2021/10/13 03:17:27;;;;;;;0.80;0.50;;;21.50;50.70;;;;;;6307693;28;20028;-71
2021/10/13 03:20:29;;;;;;;1.30;0.60;;;21.50;50.80;;;;;;6320460;28;20031;-71
2021/10/13 03:23:30;;;;;;;0.85;0.52;;;21.50;50.80;;;;;;6320705;28;20036;-72
2021/10/13 03:26:30;;;;;;;1.63;0.60;;;21.50;50.80;;;;;;6319994;28;20028;-71
2021/10/13 03:29:31;;;;;;;0.93;0.70;;;21.50;50.80;;;;;;6320643;28;20567;-72
2021/10/13 03:32:32;;;;;;;0.40;0.40;;;21.50;50.80;;;;;;6319950;28;20039;-71
2021/10/13 03:35:33;;;;;;;1.13;0.60;;;21.50;51.50;;;;;;6319888;28;20032;-71
2021/10/13 03:38:34;;;;;;;0.60;0.57;;;21.50;50.80;;;;;;6319737;28;20035;-71
2021/10/13 03:41:34;;;;;;;0.82;0.55;;;21.50;50.80;;;;;;6320171;28;20115;-71
2021/10/13 03:44:35;;;;;;;0.73;0.55;;;21.50;50.80;;;;;;6320622;28;20035;-71
2021/10/13 03:47:36;;;;;;;0.90;0.55;;;21.50;50.80;;;;;;6319679;28;20384;-71
2021/10/13 03:50:37;;;;;;;0.60;0.50;;;21.50;50.80;;;;;;6319583;28;20056;-71
2021/10/13 03:53:37;;;;;;;0.65;0.50;;;21.50;50.80;;;;;;6319908;28;20099;-71
2021/10/13 03:56:38;;;;;;;0.88;0.70;;;21.50;50.90;;;;;;6319667;28;20024;-71
2021/10/13 04:03:36;;;;;;;0.70;0.68;;;21.50;50.80;;;;;;6319613;28;20040;-71
2021/10/13 04:06:37;;;;;;;0.60;0.50;;;21.50;50.80;;;;;;6319439;28;20048;-72
2021/10/13 04:09:38;;;;;;;0.93;0.50;;;21.50;50.80;;;;;;6319517;28;20437;-72
2021/10/13 04:12:39;;;;;;;0.75;0.55;;;21.50;50.80;;;;;;6319448;28;20039;-71
2021/10/13 04:15:40;;;;;;;0.90;0.70;;;21.50;50.90;;;;;;6302076;28;20025;-75
2021/10/13 04:18:40;;;;;;;0.80;0.57;;;21.50;50.90;;;;;;6309546;28;20498;-72
2021/10/13 04:21:41;;;;;;;0.77;0.50;;;21.50;50.90;;;;;;6319130;28;20177;-71
2021/10/13 04:24:41;;;;;;;0.60;0.60;;;21.50;50.90;;;;;;6318635;28;20050;-72
2021/10/13 04:27:42;;;;;;;0.95;0.65;;;21.50;50.90;;;;;;6317920;28;20065;-71
2021/10/13 04:30:43;;;;;;;0.90;0.55;;;21.40;50.80;;;;;;6319430;28;20436;-71
2021/10/13 04:33:43;;;;;;;0.70;0.57;;;21.50;50.90;;;;;;6318908;28;20062;-71
2021/10/13 04:36:44;;;;;;;0.85;0.63;;;21.50;50.90;;;;;;6318949;28;20034;-71
2021/10/13 04:39:44;;;;;;;1.00;0.68;;;21.50;50.90;;;;;;6316909;28;20067;-72
2021/10/13 04:42:45;;;;;;;0.88;0.70;;;21.50;51.00;;;;;;6318654;28;20042;-71
2021/10/13 04:45:45;;;;;;;0.93;0.60;;;21.40;50.80;;;;;;6318167;28;20023;-71
2021/10/13 04:48:46;;;;;;;0.65;0.60;;;21.50;50.90;;;;;;6318453;28;20031;-71
2021/10/13 04:51:46;;;;;;;0.85;0.55;;;21.50;50.90;;;;;;6318402;28;20114;-72
2021/10/13 04:54:47;;;;;;;0.60;0.60;;;21.50;50.90;;;;;;6318653;28;20093;-71
2021/10/13 04:57:47;;;;;;;0.90;0.60;;;21.50;51.00;;;;;;6317724;28;20028;-71
2021/10/13 05:00:48;;;;;;;0.88;0.75;;;21.50;51.00;;;;;;6317642;28;20043;-71
2021/10/13 05:03:48;;;;;;;0.70;0.50;;;21.50;50.90;;;;;;6311288;28;20081;-71
2021/10/13 05:06:49;;;;;;;0.90;0.80;;;21.50;50.90;;;;;;6318156;28;20391;-71
2021/10/13 05:09:49;;;;;;;1.02;0.80;;;21.50;50.90;;;;;;6317404;28;20069;-72
2021/10/13 05:12:50;;;;;;;0.98;0.73;;;21.50;51.00;;;;;;6317845;28;20475;-70
2021/10/13 05:15:51;;;;;;;0.77;0.70;;;21.50;51.10;;;;;;6299404;28;20028;-71
2021/10/13 05:18:51;;;;;;;1.17;0.80;;;21.50;51.00;;;;;;6316882;28;20027;-71
2021/10/13 05:21:52;;;;;;;0.60;0.50;;;21.50;51.00;;;;;;6317547;28;20024;-71
2021/10/13 05:24:52;;;;;;;0.57;0.57;;;21.40;50.90;;;;;;6317523;28;20092;-71
2021/10/13 05:27:53;;;;;;;0.65;0.50;;;21.50;51.10;;;;;;6317192;28;20054;-71
2021/10/13 05:30:53;;;;;;;1.50;0.80;;;21.50;51.00;;;;;;6318364;28;20051;-71
2021/10/13 05:33:54;;;;;;;0.98;0.77;;;21.50;51.00;;;;;;6316231;28;20479;-71
2021/10/13 05:36:54;;;;;;;1.40;0.93;;;21.50;51.00;;;;;;6317323;28;20028;-70
2021/10/13 05:39:55;;;;;;;1.13;0.80;;;21.50;51.00;;;;;;6317187;28;20498;-71
2021/10/13 05:42:55;;;;;;;1.35;0.70;;;21.50;51.00;;;;;;6317816;28;20028;-72
2021/10/13 05:45:56;;;;;;;0.88;0.70;;;21.50;51.00;;;;;;6317408;28;20032;-71
2021/10/13 05:48:56;;;;;;;0.95;0.63;;;21.50;51.00;;;;;;6317571;28;20111;-71
2021/10/13 05:51:57;;;;;;;0.88;0.65;;;21.50;51.10;;;;;;6317101;28;20027;-72
2021/10/13 05:54:57;;;;;;;0.85;0.63;;;21.40;51.10;;;;;;6317288;28;20073;-71
2021/10/13 05:58:02;;;;;;;0.90;0.70;;;21.50;51.10;;;;;;6317602;28;20455;-71
2021/10/13 06:01:02;;;;;;;0.80;0.50;;;21.50;51.10;;;;;;6317130;28;20032;-71
2021/10/13 06:04:03;;;;;;;0.90;0.63;;;21.50;51.00;;;;;;6320207;28;20518;-71
2021/10/13 06:07:03;;;;;;;1.17;0.90;;;21.50;51.10;;;;;;6324820;28;20028;-72
2021/10/13 06:10:05;;;;;;;1.60;0.70;;;21.50;51.10;;;;;;6324753;28;20517;-69
2021/10/13 06:13:06;;;;;;;1.05;0.57;;;21.50;51.10;;;;;;6324307;28;20035;-71
2021/10/13 06:16:10;;;;;;;0.68;0.60;;;21.50;51.00;;;;;;6303304;28;20013;-71
2021/10/13 06:19:11;;;;;;;0.82;0.70;;;21.40;51.00;;;;;;6318885;28;20016;-71
2021/10/13 06:22:11;;;;;;;0.80;0.80;;;21.40;51.00;;;;;;6324175;28;20035;-71
2021/10/13 06:25:12;;;;;;;0.77;0.70;;;21.50;51.10;;;;;;6323912;28;20028;-71
2021/10/13 06:28:13;;;;;;;0.85;0.73;;;21.50;51.10;;;;;;6323788;28;20048;-72
2021/10/13 06:31:13;;;;;;;0.60;0.50;;;21.50;51.10;;;;;;6324225;28;20493;-71
2021/10/13 06:34:17;;;;;;;1.10;0.90;;;21.50;51.10;;;;;;6324904;28;20036;-71
2021/10/13 06:37:18;;;;;;;0.68;0.68;;;21.50;51.20;;;;;;6323087;28;20475;-71
2021/10/13 06:40:18;;;;;;;0.57;0.52;;;21.50;51.10;;;;;;6324248;28;20028;-71
2021/10/13 06:43:21;;;;;;;0.60;0.60;;;21.50;51.10;;;;;;6322937;28;20547;-72
2021/10/13 06:46:22;;;;;;;1.38;0.90;;;21.40;51.00;;;;;;6323113;28;20020;-71
2021/10/13 06:49:22;;;;;;;0.75;0.70;;;21.50;51.10;;;;;;6323891;28;20020;-72
2021/10/13 06:52:23;;;;;;;0.80;0.80;;;21.50;51.10;;;;;;6324005;28;20024;-71
2021/10/13 06:55:23;;;;;;;1.20;0.70;;;21.50;51.10;;;;;;6323796;28;20427;-71
2021/10/13 06:58:24;;;;;;;0.77;0.70;;;21.50;51.10;;;;;;6322950;28;20031;-71
2021/10/13 07:01:24;;;;;;;1.02;0.80;;;21.50;51.10;;;;;;6323940;28;20086;-71
2021/10/13 07:04:25;;;;;;;0.90;0.80;;;21.50;51.10;;;;;;6323435;28;20093;-71
2021/10/13 07:07:25;;;;;;;0.55;0.55;;;21.50;51.10;;;;;;6322613;28;20032;-72
2021/10/13 07:10:26;;;;;;;0.70;0.65;;;21.50;51.10;;;;;;6322956;28;20498;-71
2021/10/13 07:13:26;;;;;;;0.70;0.60;;;21.50;51.10;;;;;;6322336;28;20028;-71
2021/10/13 07:16:27;;;;;;;1.38;0.50;;;21.50;51.10;;;;;;6303886;28;20024;-70
2021/10/13 07:19:27;;;;;;;0.90;0.70;;;21.50;51.10;;;;;;6323144;28;20032;-71
2021/10/13 07:22:28;;;;;;;0.73;0.65;;;21.40;51.10;;;;;;6323618;28;20078;-71
2021/10/13 07:25:30;;;;;;;1.17;0.70;;;21.50;51.20;;;;;;6322673;28;20063;-71
2021/10/13 07:28:32;;;;;;;0.75;0.60;;;21.40;51.00;;;;;;6323017;28;20027;-71
2021/10/13 07:31:33;;;;;;;0.70;0.50;;;21.50;51.10;;;;;;6323110;28;20048;-71
2021/10/13 07:34:33;;;;;;;0.82;0.70;;;21.50;51.10;;;;;;6322449;28;20426;-72
2021/10/13 07:37:34;;;;;;;0.85;0.80;;;21.50;51.10;;;;;;6321612;28;20062;-72
2021/10/13 07:40:34;;;;;;;0.90;0.70;;;21.40;51.10;;;;;;6323314;28;20035;-71
2021/10/13 07:43:35;;;;;;;0.80;0.70;;;21.40;51.10;;;;;;6322183;28;20097;-71
2021/10/13 07:46:35;;;;;;;1.15;0.90;;;21.40;51.10;;;;;;6322695;28;20878;-71
2021/10/13 07:49:38;;;;;;;1.35;0.80;;;21.50;51.20;;;;;;6323339;28;20035;-71
2021/10/13 07:52:38;;;;;;;0.80;0.75;;;21.50;51.10;;;;;;6322466;28;20018;-71
2021/10/13 07:55:39;;;;;;;0.73;0.60;;;21.50;51.10;;;;;;6321853;28;20574;-72
2021/10/13 07:58:39;;;;;;;0.68;0.60;;;21.40;51.10;;;;;;6322263;28;20043;-72
2021/10/13 08:01:40;;;;;;;1.35;0.85;;;21.40;51.10;;;;;;6322153;28;20058;-72
2021/10/13 08:04:40;;;;;;;0.80;0.77;;;21.50;51.20;;;;;;6322497;28;20514;-72
2021/10/13 08:07:41;;;;;;;0.63;0.60;;;21.40;51.10;;;;;;6322109;28;20020;-71
2021/10/13 08:10:42;;;;;;;0.70;0.70;;;21.40;51.10;;;;;;6322730;28;20040;-71
2021/10/13 08:13:42;;;;;;;0.98;0.88;;;21.40;51.10;;;;;;6321264;28;20068;-72
2021/10/13 08:16:43;;;;;;;1.30;0.80;;;21.50;51.20;;;;;;6296828;28;20162;-72
2021/10/13 08:19:44;;;;;;;1.20;0.73;;;21.40;51.10;;;;;;6317429;28;20119;-72
2021/10/13 08:22:46;;;;;;;1.00;0.80;;;21.40;51.10;;;;;;6320581;28;20032;-72
2021/10/13 08:25:47;;;;;;;0.80;0.80;;;21.40;51.10;;;;;;6321518;28;20035;-72
2021/10/13 08:28:48;;;;;;;0.80;0.70;;;21.50;51.90;;;;;;6321267;28;20036;-72
2021/10/13 08:31:48;;;;;;;0.88;0.77;;;21.40;51.20;;;;;;6321377;28;20088;-72
2021/10/13 08:34:49;;;;;;;1.13;0.88;;;21.40;51.20;;;;;;6321139;28;20020;-72
2021/10/13 08:37:49;;;;;;;1.15;0.85;;;21.50;51.20;;;;;;6320717;28;20070;-72
2021/10/13 08:40:50;;;;;;;0.63;0.52;;;21.40;51.20;;;;;;6321186;28;20031;-72
2021/10/13 08:43:50;;;;;;;0.85;0.80;;;21.40;51.20;;;;;;6321298;28;20071;-72
2021/10/13 08:46:51;;;;;;;1.23;0.85;;;21.40;51.20;;;;;;6320619;28;20483;-73
2021/10/13 08:49:53;;;;;;;0.90;0.75;;;21.40;51.20;;;;;;6321010;28;20440;-72
2021/10/13 08:53:24;;;;;;;0.60;0.55;;;21.40;51.10;;;;;;6320887;28;20020;-72
2021/10/13 08:56:25;;;;;;;2.00;0.85;;;21.40;51.20;;;;;;6315927;28;20040;-72
2021/10/13 08:59:40;;;;;;;0.75;0.70;;;21.40;51.20;;;;;;6320170;28;20020;-71
2021/10/13 09:02:46;;;;;;;0.85;0.70;;;21.40;51.20;;;;;;6319975;28;20032;-72
2021/10/13 09:05:47;;;;;;;0.70;0.70;;;21.40;51.20;;;;;;6320792;28;20445;-72
2021/10/13 09:09:05;;;;;;;1.02;0.70;;;21.40;51.20;;;;;;6320377;28;20064;-72
2021/10/13 09:12:06;;;;;;;0.77;0.70;;;21.40;51.20;;;;;;6320145;28;20051;-72
2021/10/13 09:15:12;;;;;;;0.90;0.80;;;21.40;51.20;;;;;;6308421;28;20040;-72
2021/10/13 09:18:12;;;;;;;0.90;0.77;;;21.40;51.20;;;;;;6313320;28;20085;-72
2021/10/13 09:21:13;;;;;;;1.17;0.70;;;21.40;51.20;;;;;;6320367;28;20049;-71
2021/10/13 09:24:14;;;;;;;0.95;0.80;;;21.50;51.20;;;;;;6320340;28;20411;-72
2021/10/13 09:27:22;;;;;;;0.95;0.85;;;21.40;51.10;;;;;;6319639;28;20031;-71
2021/10/13 09:30:35;;;;;;;0.85;0.70;;;21.40;51.20;;;;;;6320215;28;20111;-72
2021/10/13 09:33:35;;;;;;;1.02;0.70;;;21.50;51.20;;;;;;6319690;28;20059;-71
2021/10/13 09:36:41;;;;;;;0.93;0.80;;;21.40;51.20;;;;;;6319851;28;20024;-72
2021/10/13 09:39:58;;;;;;;1.10;0.70;;;21.40;51.20;;;;;;6319815;28;20115;-71
2021/10/13 09:42:59;;;;;;;0.90;0.70;;;21.40;51.20;;;;;;6319726;28;20020;-72
2021/10/13 09:46:01;;;;;;;0.90;0.90;;;21.40;51.20;;;;;;6319513;28;20559;-72
2021/10/13 09:49:02;;;;;;;0.93;0.80;;;21.40;51.20;;;;;;6319618;28;20057;-72
2021/10/13 09:52:08;;;;;;;0.57;0.57;;;21.40;51.20;;;;;;6319625;28;20059;-72
2021/10/13 09:55:13;;;;;;;0.80;0.70;;;21.40;51.20;;;;;;6320001;28;20020;-72
2021/10/13 09:58:25;;;;;;;;;;;21.50;52.00;;;;;;6319661;28;20040;-73
2021/10/13 10:01:28;;;;;;;1.02;0.75;;;21.40;51.20;;;;;;6319927;28;19977;-73
2021/10/13 10:04:29;;;;;;;0.75;0.70;;;21.40;51.20;;;;;;6319619;28;20032;-71
2021/10/13 10:07:30;;;;;;;0.90;0.70;;;21.40;51.20;;;;;;6319041;28;20035;-71
2021/10/13 10:10:33;;;;;;;0.80;0.70;;;21.40;51.10;;;;;;6319455;28;20055;-72
2021/10/13 10:13:35;;;;;;;0.95;0.75;;;21.50;51.20;;;;;;6318042;28;20021;-72
2021/10/13 10:16:39;;;;;;;1.15;0.90;;;21.40;51.20;;;;;;6295252;28;20025;-72
2021/10/13 10:19:45;;;;;;;1.10;0.65;;;21.40;51.20;;;;;;6317434;28;20031;-72
2021/10/13 10:22:46;;;;;;;0.95;0.85;;;21.40;51.20;;;;;;6319106;28;20119;-72
2021/10/13 10:25:47;;;;;;;1.27;0.70;;;21.40;51.20;;;;;;6318710;28;20486;-72
2021/10/13 10:28:51;;;;;;;0.90;0.75;;;21.40;51.20;;;;;;6318889;28;20020;-72
2021/10/13 10:31:56;;;;;;;1.13;0.80;;;21.50;51.30;;;;;;6319097;28;20027;-71
2021/10/13 10:35:03;;;;;;;1.13;0.82;;;21.40;51.20;;;;;;6319160;28;20051;-72
2021/10/13 10:38:07;;;;;;;1.00;0.80;;;21.40;51.20;;;;;;6319151;28;20050;-72
2021/10/13 10:41:09;;;;;;;0.90;0.70;;;21.40;51.20;;;;;;6319018;28;20031;-72
2021/10/13 10:44:29;;;;;;;1.05;0.70;;;21.40;51.20;;;;;;6319548;28;20115;-72
2021/10/13 10:47:48;;;;;;;0.98;0.80;;;21.40;51.20;;;;;;6323738;28;20024;-72
2021/10/13 10:50:58;;;;;;;1.17;0.80;;;21.40;51.10;;;;;;6323107;28;20028;-72
2021/10/13 10:54:23;;;;;;;1.35;0.80;;;21.40;51.20;;;;;;6323754;28;20036;-72
2021/10/13 10:57:47;;;;;;;0.88;0.70;;;21.40;51.20;;;;;;6323490;28;20032;-72
2021/10/13 11:01:01;;;;;;;0.95;0.88;;;21.40;51.80;;;;;;6323798;28;20032;-72
2021/10/13 11:04:10;;;;;;;0.88;0.73;;;21.40;51.20;;;;;;6322967;28;20471;-73
2021/10/13 11:07:17;;;;;;;0.70;0.70;;;21.40;51.20;;;;;;6323352;28;20107;-72
2021/10/13 11:10:18;;;;;;;1.63;0.85;;;21.50;51.20;;;;;;6323451;28;20560;-73
2021/10/13 11:13:24;;;;;;;1.23;0.90;;;21.50;51.20;;;;;;6322971;28;20049;-71
2021/10/13 11:16:26;;;;;;;0.82;0.70;;;21.40;51.20;;;;;;6303589;28;20016;-72
2021/10/13 11:19:33;;;;;;;0.90;0.70;;;21.50;51.30;;;;;;6322646;28;20016;-71
2021/10/13 11:22:34;;;;;;;0.90;0.80;;;21.50;51.20;;;;;;6322800;28;20020;-72
2021/10/13 11:25:35;;;;;;;0.80;0.68;;;21.50;51.20;;;;;;6322457;28;20379;-71
2021/10/13 11:28:38;;;;;;;1.15;0.63;;;21.50;51.20;;;;;;6321697;28;20034;-73
2021/10/13 11:31:38;;;;;;;0.82;0.80;;;21.50;51.20;;;;;;6322860;28;20024;-72
2021/10/13 11:34:41;;;;;;;1.27;0.90;;;21.50;51.20;;;;;;6323091;28;20035;-71
2021/10/13 11:37:50;;;;;;;0.82;0.70;;;21.50;51.20;;;;;;6321743;28;20620;-72
2021/10/13 11:40:51;;;;;;;0.95;0.70;;;21.50;51.20;;;;;;6322385;28;20035;-71
2021/10/13 11:43:51;;;;;;;1.10;0.80;;;21.40;51.20;;;;;;6322701;28;20036;-71
2021/10/13 11:47:05;;;;;;;1.25;0.88;;;21.50;51.20;;;;;;6322021;28;20023;-72
2021/10/13 11:50:10;;;;;;;0.90;0.80;;;21.50;51.20;;;;;;6322032;28;20024;-71
2021/10/13 11:53:13;;;;;;;0.80;0.70;;;21.50;51.20;;;;;;6321702;28;20027;-71
2021/10/13 11:56:13;;;;;;;1.23;0.70;;;21.50;51.20;;;;;;6322245;28;20032;-72
2021/10/13 11:59:14;;;;;;;0.75;0.68;;;21.40;51.10;;;;;;6321328;28;20065;-72
2021/10/13 12:02:17;;;;;;;0.82;0.77;;;21.40;51.20;;;;;;6322230;28;20043;-72
2021/10/13 12:05:17;;;;;;;0.70;0.68;;;21.40;51.20;;;;;;6321363;28;20526;-72
2021/10/13 12:08:29;;;;;;;0.82;0.60;;;21.50;51.20;;;;;;6321412;28;20024;-71
2021/10/13 12:11:37;;;;;;;1.23;0.93;;;21.50;51.20;;;;;;6321552;28;20108;-72
2021/10/13 12:14:37;;;;;;;0.70;0.60;;;21.50;51.20;;;;;;6313467;28;20017;-71
2021/10/13 12:17:38;;;;;;;1.10;0.80;;;21.50;51.30;;;;;;6301006;28;20037;-72
2021/10/13 12:20:38;;;;;;;1.05;0.80;;;21.50;51.30;;;;;;6321496;28;20180;-72
2021/10/13 12:24:04;;;;;;;0.77;0.60;;;21.40;51.20;;;;;;6321624;28;20032;-72
2021/10/13 12:27:08;;;;;;;0.80;0.70;;;21.50;51.30;;;;;;6320914;28;20537;-71
2021/10/13 12:30:08;;;;;;;0.73;0.60;;;21.40;51.20;;;;;;6321308;28;20023;-73
2021/10/13 12:33:15;;;;;;;1.13;0.60;;;21.50;51.30;;;;;;6321049;28;20028;-72
2021/10/13 12:36:17;;;;;;;0.80;0.60;;;21.40;51.20;;;;;;6320701;28;20056;-72
2021/10/13 12:39:26;;;;;;;0.80;0.80;;;21.50;51.30;;;;;;6321031;28;20028;-72
2021/10/13 12:42:27;;;;;;;1.13;0.90;;;21.50;51.30;;;;;;6320619;28;20023;-72
2021/10/13 12:45:27;;;;;;;1.23;0.90;;;21.50;51.30;;;;;;6321246;28;20058;-72
2021/10/13 12:48:27;;;;;;;0.80;0.70;;;21.40;51.30;;;;;;6320612;28;20146;-71
2021/10/13 12:51:28;;;;;;;1.52;0.70;;;21.50;51.30;;;;;;6320769;28;20035;-71
2021/10/13 12:54:31;;;;;;;0.70;0.60;;;21.50;51.30;;;;;;6320795;28;20068;-72
2021/10/13 12:57:32;;;;;;;0.88;0.65;;;21.40;51.30;;;;;;6320366;28;20020;-72
2021/10/13 13:00:33;;;;;;;0.93;0.80;;;21.40;51.20;;;;;;6319253;28;20055;-71
2021/10/13 13:03:34;;;;;;;0.70;0.60;;;21.40;51.30;;;;;;6320666;28;20395;-72
2021/10/13 13:06:34;;;;;;;0.73;0.70;;;21.40;51.30;;;;;;6320199;28;20020;-71
2021/10/13 13:09:36;;;;;;;0.73;0.65;;;21.50;51.40;;;;;;6319393;28;20387;-72
2021/10/13 13:12:37;;;;;;;1.00;0.60;;;21.40;51.30;;;;;;6320269;28;20091;-72
2021/10/13 13:15:38;;;;;;;0.57;0.57;;;21.50;51.40;;;;;;6303671;28;20436;-72
2021/10/13 13:18:42;;;;;;;0.70;0.70;;;21.50;51.50;;;;;;6317575;28;20094;-72
2021/10/13 13:21:47;;;;;;;0.80;0.65;;;21.50;51.50;;;;;;6320426;28;20028;-72
2021/10/13 13:24:47;;;;;;;0.75;0.65;;;21.40;51.30;;;;;;6320191;28;20040;-72
2021/10/13 13:27:48;;;;;;;1.27;0.70;;;21.40;51.30;;;;;;6319223;28;20391;-72
2021/10/13 13:30:48;;;;;;;0.73;0.63;;;21.40;51.40;;;;;;6320287;28;20356;-72
2021/10/13 13:33:49;;;;;;;0.80;0.70;;;21.40;51.30;;;;;;6320344;28;20036;-72
2021/10/13 13:36:49;;;;;;;0.85;0.70;;;21.40;51.40;;;;;;6319629;28;20051;-71
2021/10/13 13:39:50;;;;;;;0.68;0.50;;;21.50;51.50;;;;;;6319598;28;20107;-73
2021/10/13 13:42:50;;;;;;;0.80;0.60;;;21.40;51.30;;;;;;6319846;28;20024;-72
2021/10/13 13:45:51;;;;;;;0.90;0.60;;;21.40;51.40;;;;;;6319850;28;20028;-73
2021/10/13 13:48:51;;;;;;;0.70;0.70;;;21.40;51.40;;;;;;6320107;28;20058;-73
2021/10/13 13:51:52;;;;;;;1.00;0.70;;;21.40;51.40;;;;;;6319644;28;20028;-73
2021/10/13 13:54:53;;;;;;;0.60;0.60;;;21.40;51.40;;;;;;6320076;28;20028;-73
2021/10/13 13:57:53;;;;;;;0.68;0.68;;;21.40;51.40;;;;;;6319538;28;20049;-72
2021/10/13 14:00:54;;;;;;;0.80;0.70;;;21.40;51.40;;;;;;6320171;28;20016;-73
2021/10/13 14:03:54;;;;;;;0.90;0.70;;;21.50;51.50;;;;;;6319745;28;20040;-72
2021/10/13 14:06:55;;;;;;;0.70;0.70;;;21.40;51.50;;;;;;6319290;28;20032;-72
2021/10/13 14:09:56;;;;;;;0.60;0.60;;;21.50;52.20;;;;;;6319554;28;20119;-73
2021/10/13 14:12:57;;;;;;;0.60;0.60;;;21.40;51.50;;;;;;6319555;28;20495;-73
2021/10/13 14:15:58;;;;;;;0.93;0.80;;;21.40;51.40;;;;;;6300266;28;20044;-73
2021/10/13 14:18:58;;;;;;;0.60;0.60;;;21.40;51.50;;;;;;6312275;28;20464;-73
2021/10/13 14:21:59;;;;;;;0.73;0.73;;;21.40;51.40;;;;;;6324411;28;20035;-72
2021/10/13 14:24:59;;;;;;;1.00;0.60;;;21.40;51.50;;;;;;6324386;28;20115;-73
2021/10/13 14:28:00;;;;;;;0.90;0.70;;;21.50;51.50;;;;;;6323834;28;20170;-72
2021/10/13 14:31:00;;;;;;;1.15;0.80;;;21.40;51.40;;;;;;6324358;28;20024;-73
2021/10/13 14:34:02;;;;;;;0.80;0.70;;;21.50;51.60;;;;;;6324341;28;20074;-73
2021/10/13 14:37:03;;;;;;;0.70;0.70;;;21.50;51.60;;;;;;6306565;28;20051;-73
2021/10/13 14:40:04;;;;;;;0.88;0.75;;;21.40;51.50;;;;;;6324456;28;20024;-72
2021/10/13 14:43:05;;;;;;;0.82;0.80;;;21.50;51.70;;;;;;6324261;28;20039;-72
2021/10/13 14:46:06;;;;;;;1.27;0.80;;;21.50;51.70;;;;;;6323589;28;20036;-72
2021/10/13 14:49:06;;;;;;;1.10;0.98;;;21.40;51.60;;;;;;6323678;28;20023;-73
2021/10/13 14:52:08;;;;;;;0.98;0.73;;;21.50;51.70;;;;;;6322426;28;20025;-73
2021/10/13 14:55:09;;;;;;;1.00;0.70;;;21.40;51.60;;;;;;6323701;28;20521;-73
2021/10/13 14:58:09;;;;;;;0.95;0.65;;;21.50;51.50;;;;;;6323297;28;20024;-72
2021/10/13 15:01:10;;;;;;;0.90;0.70;;;21.50;51.70;;;;;;6323334;28;20098;-72
2021/10/13 15:04:11;;;;;;;0.88;0.80;;;21.40;51.60;;;;;;6323223;28;20032;-73
2021/10/13 15:07:11;;;;;;;0.90;0.77;;;21.40;51.60;;;;;;6322901;28;20055;-72
2021/10/13 15:10:12;;;;;;;1.05;0.80;;;21.40;51.60;;;;;;6323074;28;20054;-73
2021/10/13 15:13:13;;;;;;;1.23;0.60;;;21.50;51.60;;;;;;6323007;28;20031;-73
2021/10/13 15:16:14;;;;;;;1.10;0.85;;;21.40;51.60;;;;;;6303477;28;20070;-73
2021/10/13 15:19:15;;;;;;;1.00;0.80;;;21.40;51.70;;;;;;6323804;28;20100;-72
2021/10/13 15:22:16;;;;;;;0.77;0.77;;;21.40;51.60;;;;;;6321619;28;20031;-72
2021/10/13 15:25:17;;;;;;;0.98;0.65;;;21.40;51.70;;;;;;6322882;28;20038;-72
2021/10/13 15:28:18;;;;;;;1.02;0.80;;;21.40;51.60;;;;;;6322516;28;20021;-72
2021/10/13 15:31:18;;;;;;;0.98;0.80;;;21.40;51.70;;;;;;6322017;28;20153;-71
2021/10/13 15:34:19;;;;;;;0.73;0.73;;;21.40;51.60;;;;;;6322491;28;20020;-72
2021/10/13 15:37:20;;;;;;;0.93;0.70;;;21.40;51.70;;;;;;6321896;28;20035;-72
2021/10/13 15:40:22;;;;;;;1.00;0.73;;;21.40;51.70;;;;;;6297472;28;20084;-71
2021/10/13 15:43:22;;;;;;;1.02;0.82;;;21.40;51.70;;;;;;6311822;28;20605;-73
2021/10/13 15:46:23;;;;;;;0.85;0.68;;;21.40;51.70;;;;;;6316299;28;20120;-72
2021/10/13 15:49:23;;;;;;;1.48;0.85;;;21.40;51.60;;;;;;6319011;28;20034;-72
2021/10/13 15:52:24;;;;;;;1.85;0.60;;;21.40;51.30;;;;;;6310963;28;20098;-72
2021/10/13 15:55:25;;;;;;;0.93;0.70;;;21.40;51.20;;;;;;6316136;28;20024;-72